Time;durP1;ratioP1;P1;durP2;ratioP2;P2;SDS_P1;SDS_P2;PMS_P1;PMS_P2;Temp;Humidity;BMP_temperature;BMP_pressure;BME280_temperature;BME280_humidity;BME280_pressure;Samples;Min_cycle;Max_cycle;Signal;HPM_P1;HPM_P2
2022/06/30 00:01:36;;;;;;;6.93;5.20;;;26.80;67.60;;;;;;10946757;32;20319;-70
2022/06/30 00:07:38;;;;;;;10.48;4.32;;;26.90;67.60;;;;;;10942318;32;20027;-70
2022/06/30 00:13:41;;;;;;;7.00;4.90;;;26.90;67.60;;;;;;10946359;32;20163;-70
2022/06/30 00:19:45;;;;;;;8.32;6.70;;;26.80;67.90;;;;;;10946053;32;20049;-70
2022/06/30 00:25:47;;;;;;;8.68;5.65;;;26.90;68.00;;;;;;10944072;32;20023;-70
2022/06/30 00:31:49;;;;;;;11.30;7.45;;;26.80;68.10;;;;;;10932407;32;20022;-70
2022/06/30 00:37:51;;;;;;;7.90;5.78;;;26.80;68.10;;;;;;10945193;32;20023;-70
2022/06/30 00:44:28;;;;;;;7.85;6.00;;;26.80;68.00;;;;;;10943433;32;20042;-70
2022/06/30 00:50:30;;;;;;;8.65;4.50;;;26.70;68.10;;;;;;10943736;32;20064;-70
2022/06/30 00:56:34;;;;;;;11.10;6.30;;;26.60;68.10;;;;;;10944930;32;20019;-70
2022/06/30 01:03:05;;;;;;;8.73;6.43;;;26.70;68.30;;;;;;10944667;32;20023;-70
2022/06/30 01:09:07;;;;;;;9.43;6.62;;;26.60;68.30;;;;;;10944342;32;20015;-70
2022/06/30 01:15:15;;;;;;;8.20;6.03;;;26.50;68.40;;;;;;10944173;32;20045;-70
2022/06/30 01:21:18;;;;;;;11.48;7.18;;;26.50;68.50;;;;;;10943530;32;20184;-70
2022/06/30 01:27:20;;;;;;;10.82;7.35;;;26.60;68.70;;;;;;10942418;32;20323;-74
2022/06/30 01:33:22;;;;;;;9.68;7.37;;;26.50;68.60;;;;;;10943537;32;20041;-74
2022/06/30 01:39:24;;;;;;;8.75;6.72;;;26.40;68.60;;;;;;10941841;32;20030;-73
2022/06/30 01:45:35;;;;;;;9.85;6.47;;;26.30;68.70;;;;;;10942453;32;20049;-73
2022/06/30 01:51:37;;;;;;;8.30;5.32;;;26.30;68.70;;;;;;10942877;32;20018;-73
2022/06/30 01:57:40;;;;;;;8.57;5.72;;;26.30;68.90;;;;;;10942690;32;20046;-73
2022/06/30 02:03:42;;;;;;;11.48;5.25;;;26.30;68.90;;;;;;10942656;32;20015;-73
2022/06/30 02:09:44;;;;;;;8.13;5.07;;;26.40;68.90;;;;;;10929221;32;20392;-73
2022/06/30 02:15:47;;;;;;;11.35;5.70;;;26.30;69.00;;;;;;10942290;32;20037;-73
2022/06/30 02:21:49;;;;;;;7.62;6.32;;;26.30;69.20;;;;;;10942096;32;20019;-73
2022/06/30 02:27:51;;;;;;;8.68;6.57;;;26.30;69.10;;;;;;10941724;32;20064;-74
2022/06/30 02:33:53;;;;;;;8.15;5.50;;;26.10;69.10;;;;;;10941980;32;20046;-73
2022/06/30 02:39:55;;;;;;;10.25;7.03;;;26.00;69.30;;;;;;10940311;32;20441;-70
2022/06/30 02:45:57;;;;;;;11.98;8.35;;;26.00;69.40;;;;;;10937400;32;20363;-70
2022/06/30 02:52:00;;;;;;;12.35;6.32;;;26.10;69.30;;;;;;10941421;32;20026;-70
2022/06/30 02:58:01;;;;;;;8.70;6.10;;;26.10;69.30;;;;;;10943335;32;20027;-70
2022/06/30 03:04:04;;;;;;;8.50;6.22;;;26.10;69.50;;;;;;10948651;32;20027;-70
2022/06/30 03:10:06;;;;;;;11.25;5.87;;;26.00;69.70;;;;;;10948616;32;20015;-70
2022/06/30 03:16:08;;;;;;;7.95;5.70;;;25.80;70.10;;;;;;10949581;32;20280;-70
2022/06/30 03:22:10;;;;;;;8.80;4.95;;;25.90;70.00;;;;;;10948170;32;20131;-70
2022/06/30 03:28:13;;;;;;;9.02;6.50;;;25.80;70.00;;;;;;10947888;32;20308;-70
2022/06/30 03:34:15;;;;;;;13.98;7.78;;;25.90;70.00;;;;;;10947809;32;20011;-70
2022/06/30 03:40:17;;;;;;;8.18;5.25;;;25.90;69.90;;;;;;10947506;32;20319;-70
2022/06/30 03:46:19;;;;;;;8.20;5.72;;;25.90;69.90;;;;;;10943401;32;20031;-69
2022/06/30 03:52:21;;;;;;;11.12;5.32;;;25.90;70.00;;;;;;10944951;32;20054;-70
2022/06/30 03:58:23;;;;;;;9.95;4.95;;;25.90;70.00;;;;;;10946962;32;20014;-70
2022/06/30 04:04:25;;;;;;;8.45;5.40;;;25.80;69.90;;;;;;10942354;32;20057;-69
2022/06/30 04:10:27;;;;;;;10.38;4.15;;;25.80;69.70;;;;;;10946058;32;20015;-69
2022/06/30 04:16:29;;;;;;;7.60;4.72;;;25.80;69.70;;;;;;10946335;32;20011;-69
2022/06/30 04:22:32;;;;;;;6.97;4.22;;;25.80;69.70;;;;;;10946105;32;20311;-70
2022/06/30 04:28:34;;;;;;;9.75;4.37;;;25.80;69.80;;;;;;10972214;27;20057;-70
2022/06/30 04:34:36;;;;;;;5.85;3.17;;;25.80;70.00;;;;;;11021527;32;20014;-70
2022/06/30 04:47:10;;;;;;;7.30;4.05;;;25.80;70.30;;;;;;11021049;32;20029;-69
2022/06/30 04:53:12;;;;;;;6.62;3.67;;;25.90;70.20;;;;;;11020907;32;20202;-69
2022/06/30 04:59:15;;;;;;;9.18;4.32;;;25.80;70.40;;;;;;11020623;32;20041;-69
2022/06/30 05:05:17;;;;;;;5.12;3.05;;;25.80;70.50;;;;;;11020467;32;20307;-68
2022/06/30 05:11:19;;;;;;;6.32;3.72;;;25.80;70.60;;;;;;11020137;32;20022;-69
2022/06/30 05:17:21;;;;;;;5.47;3.53;;;25.80;70.90;;;;;;11019830;32;20062;-69
2022/06/30 05:23:24;;;;;;;8.60;2.97;;;25.80;70.60;;;;;;11018993;32;20018;-69
2022/06/30 05:29:26;;;;;;;11.25;4.00;;;25.90;70.40;;;;;;11019532;32;20330;-70
2022/06/30 05:35:29;;;;;;;7.20;3.50;;;26.00;70.20;;;;;;11019379;32;20414;-70
2022/06/30 05:41:31;;;;;;;4.85;3.00;;;26.10;70.10;;;;;;11019198;32;20018;-69
2022/06/30 05:47:33;;;;;;;5.87;3.58;;;26.20;69.80;;;;;;11018742;32;20022;-70
2022/06/30 05:53:35;;;;;;;3.85;2.58;;;26.30;69.60;;;;;;11018667;32;20060;-68
2022/06/30 05:59:38;;;;;;;5.93;3.28;;;26.40;69.60;;;;;;11007832;32;20038;-69
2022/06/30 06:05:40;;;;;;;8.32;4.03;;;26.40;69.60;;;;;;10980020;32;20060;-69
2022/06/30 06:11:42;;;;;;;6.60;3.42;;;26.60;69.40;;;;;;10980079;32;20331;-69
2022/06/30 06:17:47;;;;;;;6.80;3.75;;;26.80;69.10;;;;;;10994331;32;20042;-69
2022/06/30 06:23:50;;;;;;;8.90;2.97;;;26.90;68.90;;;;;;11017715;32;20025;-69
2022/06/30 06:29:52;;;;;;;11.25;4.32;;;27.00;68.70;;;;;;11017738;32;20041;-69
2022/06/30 06:35:54;;;;;;;6.82;3.42;;;27.10;68.80;;;;;;11027424;32;20022;-70
2022/06/30 06:41:56;;;;;;;8.50;4.15;;;27.10;68.70;;;;;;11022242;32;20022;-70
2022/06/30 06:47:58;;;;;;;10.13;5.15;;;27.20;68.50;;;;;;10991264;32;20022;-70
2022/06/30 06:54:01;;;;;;;5.78;3.47;;;27.40;68.20;;;;;;10990650;32;20088;-70
2022/06/30 07:00:05;;;;;;;5.93;3.60;;;27.50;68.00;;;;;;10991577;32;20026;-70
2022/06/30 07:06:28;;;;;;;5.82;3.75;;;27.60;67.80;;;;;;10991493;32;20112;-70
2022/06/30 07:12:31;;;;;;;10.50;5.10;;;27.70;67.70;;;;;;10977996;32;20218;-70
2022/06/30 07:18:33;;;;;;;8.52;4.97;;;27.80;67.60;;;;;;10991202;32;20026;-69
2022/06/30 07:24:36;;;;;;;9.35;5.28;;;27.80;67.40;;;;;;10986988;32;20413;-70
2022/06/30 07:30:40;;;;;;;4.90;3.20;;;27.90;67.00;;;;;;10991156;32;20026;-70
2022/06/30 07:36:44;;;;;;;8.65;4.43;;;28.10;66.80;;;;;;10991001;32;20030;-69
2022/06/30 07:42:48;;;;;;;5.72;3.47;;;28.20;66.90;;;;;;10991067;32;20037;-69
2022/06/30 07:48:50;;;;;;;7.68;4.28;;;28.30;66.60;;;;;;10984275;32;20027;-71
2022/06/30 07:55:05;;;;;;;5.75;3.72;;;28.40;66.30;;;;;;10984766;32;20084;-70
2022/06/30 08:01:07;;;;;;;15.60;4.85;;;28.50;66.20;;;;;;10980080;32;20018;-71
2022/06/30 08:07:09;;;;;;;9.95;4.40;;;28.60;66.00;;;;;;10970661;32;20402;-70
2022/06/30 08:13:21;;;;;;;9.57;4.35;;;28.70;65.60;;;;;;10984064;32;20042;-69
2022/06/30 08:19:24;;;;;;;11.50;4.68;;;28.80;65.30;;;;;;10983860;32;20022;-71
2022/06/30 08:25:27;;;;;;;8.88;5.43;;;28.90;64.90;;;;;;10983296;32;20390;-68
2022/06/30 08:31:29;;;;;;;10.07;4.07;;;28.90;64.70;;;;;;10965755;32;20341;-70
2022/06/30 08:37:31;;;;;;;7.00;3.08;;;28.90;64.70;;;;;;10983285;32;20046;-70
2022/06/30 08:43:34;;;;;;;11.07;4.47;;;29.10;64.20;;;;;;10982806;32;20030;-69
2022/06/30 08:49:36;;;;;;;7.07;4.65;;;29.30;63.50;;;;;;10982600;32;20424;-69
2022/06/30 08:55:39;;;;;;;6.72;3.95;;;29.30;63.40;;;;;;10982474;32;20022;-70
2022/06/30 09:01:41;;;;;;;11.55;5.32;;;29.40;63.20;;;;;;10969110;32;20058;-71
2022/06/30 09:07:43;;;;;;;6.50;2.87;;;29.50;63.00;;;;;;10982131;32;20034;-69
2022/06/30 09:13:50;;;;;;;6.80;3.12;;;29.70;62.20;;;;;;10977705;32;20061;-71
2022/06/30 09:20:00;;;;;;;8.75;4.50;;;29.80;62.00;;;;;;10981541;32;20061;-71
2022/06/30 09:26:03;;;;;;;12.63;5.20;;;30.00;61.60;;;;;;10981565;32;20065;-74
2022/06/30 09:32:06;;;;;;;7.03;3.65;;;30.20;60.90;;;;;;10981305;32;20026;-73
2022/06/30 09:38:13;;;;;;;7.85;2.80;;;30.30;60.40;;;;;;10981069;32;20300;-74
2022/06/30 09:44:26;;;;;;;7.68;4.07;;;30.60;60.20;;;;;;10980952;32;20064;-71
2022/06/30 09:50:28;;;;;;;5.87;3.15;;;30.80;59.60;;;;;;10980762;32;20026;-74
2022/06/30 09:56:31;;;;;;;7.25;3.47;;;30.80;59.30;;;;;;10978072;32;20358;-74
2022/06/30 10:02:41;;;;;;;15.55;5.97;;;30.80;58.90;;;;;;10976346;32;20019;-73
2022/06/30 10:08:44;;;;;;;7.80;4.20;;;31.00;58.40;;;;;;10979988;32;20347;-74
2022/06/30 10:14:49;;;;;;;11.82;4.45;;;31.10;57.90;;;;;;10980313;32;20018;-73
2022/06/30 10:20:51;;;;;;;8.32;3.87;;;31.30;57.70;;;;;;10979976;32;20049;-74
2022/06/30 10:27:13;;;;;;;8.95;4.10;;;31.50;57.50;;;;;;10966414;32;20026;-74
2022/06/30 10:33:26;;;;;;;10.00;4.80;;;31.60;57.30;;;;;;10979947;32;20029;-74
2022/06/30 10:39:34;;;;;;;11.32;5.47;;;31.30;57.70;;;;;;10979601;32;20033;-71
2022/06/30 10:45:54;;;;;;;11.45;4.30;;;31.60;57.40;;;;;;10979411;32;20046;-74
2022/06/30 10:52:24;;;;;;;11.25;4.25;;;32.00;56.20;;;;;;10977499;32;20334;-74
2022/06/30 10:58:26;;;;;;;10.27;5.32;;;32.30;55.20;;;;;;10965802;32;20044;-74
2022/06/30 11:04:28;;;;;;;12.85;4.10;;;32.40;54.20;;;;;;10979152;32;20076;-74
2022/06/30 11:10:30;;;;;;;13.30;4.30;;;32.60;54.20;;;;;;10979108;32;20049;-71
2022/06/30 11:16:35;;;;;;;8.73;4.60;;;32.80;54.20;;;;;;10978974;32;20058;-68
2022/06/30 11:22:37;;;;;;;12.57;5.60;;;33.30;54.30;;;;;;10983806;32;20037;-75
2022/06/30 11:28:40;;;;;;;15.50;5.82;;;33.10;54.40;;;;;;10162911;32;26135310;-77
2022/06/30 11:34:43;;;;;;;8.60;3.97;;;32.40;55.70;;;;;;10907498;32;20054;-73
2022/06/30 11:41:54;;;;;;;14.82;5.78;;;31.90;57.10;;;;;;10903594;32;20445;-74
2022/06/30 11:47:16;;;;;;;18.17;6.32;;;32.40;56.90;;;;;;10904868;32;20046;-69
2022/06/30 11:53:18;;;;;;;10.98;4.55;;;32.80;56.50;;;;;;10903527;32;20053;-68
2022/06/30 11:59:21;;;;;;;12.93;5.30;;;33.20;55.90;;;;;;10998212;32;20339;-68
2022/06/30 12:05:28;;;;;;;9.18;4.43;;;33.40;55.20;;;;;;11019696;32;20060;-72
2022/06/30 12:11:31;;;;;;;18.98;4.93;;;33.80;54.70;;;;;;11009002;32;20018;-73
2022/06/30 12:17:38;;;;;;;13.13;4.20;;;33.90;54.20;;;;;;11022396;32;20413;-73
2022/06/30 12:23:42;;;;;;;12.70;4.28;;;34.20;53.90;;;;;;11022078;32;20048;-76
2022/06/30 12:29:55;;;;;;;6.18;3.65;;;34.10;53.90;;;;;;11004469;27;20065;-73
2022/06/30 12:36:01;;;;;;;12.63;5.30;;;34.10;53.70;;;;;;10970165;32;20338;-74
2022/06/30 12:42:07;;;;;;;8.82;4.60;;;34.30;53.70;;;;;;10979552;32;20050;-73
2022/06/30 12:48:12;;;;;;;10.43;4.97;;;34.30;53.70;;;;;;10968539;32;20034;-73
2022/06/30 12:54:21;;;;;;;12.27;4.93;;;34.40;53.40;;;;;;10978614;32;20044;-72
2022/06/30 13:00:42;;;;;;;8.75;3.65;;;34.60;53.30;;;;;;10982482;32;20050;-73
2022/06/30 13:06:49;;;;;;;11.98;4.00;;;34.70;52.90;;;;;;10982301;32;20057;-72
2022/06/30 13:12:52;;;;;;;12.60;4.45;;;34.60;53.00;;;;;;10968675;32;20022;-71
2022/06/30 13:18:55;;;;;;;6.95;4.10;;;34.60;53.00;;;;;;10979501;32;20049;-68
2022/06/30 13:24:58;;;;;;;8.57;3.72;;;34.40;53.20;;;;;;10977198;32;20074;-73
2022/06/30 13:31:13;;;;;;;12.15;5.15;;;34.50;53.00;;;;;;10981402;32;20023;-72
2022/06/30 13:37:16;;;;;;;30.48;5.93;;;34.70;52.70;;;;;;10981134;32;20049;-74
2022/06/30 13:43:25;;;;;;;7.70;3.92;;;34.40;52.90;;;;;;10980308;32;20031;-74
2022/06/30 13:49:27;;;;;;;7.00;3.47;;;34.40;52.90;;;;;;10979989;32;20030;-72
2022/06/30 13:55:30;;;;;;;6.60;3.08;;;34.40;52.60;;;;;;10951168;32;20034;-72
2022/06/30 14:01:33;;;;;;;6.80;3.47;;;34.50;52.60;;;;;;10929337;32;20387;-72
2022/06/30 14:07:35;;;;;;;7.32;3.55;;;34.50;52.40;;;;;;10929971;32;20023;-72
2022/06/30 14:13:39;;;;;;;10.80;4.53;;;34.50;52.60;;;;;;10942536;32;20436;-72
2022/06/30 14:19:41;;;;;;;8.73;3.37;;;34.70;52.30;;;;;;10942366;32;20362;-72
2022/06/30 14:25:45;;;;;;;6.20;3.72;;;34.70;52.00;;;;;;10924652;32;20057;-72
2022/06/30 14:31:51;;;;;;;9.85;4.28;;;34.70;52.10;;;;;;10942256;32;20023;-73
2022/06/30 14:37:53;;;;;;;8.30;3.25;;;34.70;51.90;;;;;;10928752;32;20074;-73
2022/06/30 14:43:55;;;;;;;11.68;4.10;;;34.60;51.80;;;;;;10942040;32;20423;-73
2022/06/30 14:49:58;;;;;;;24.02;5.10;;;34.60;51.80;;;;;;10937431;32;20026;-72
2022/06/30 14:56:00;;;;;;;5.87;2.87;;;34.60;51.60;;;;;;10932678;32;20054;-72
2022/06/30 15:02:02;;;;;;;7.75;3.45;;;34.50;51.80;;;;;;10949164;32;20019;-73
2022/06/30 15:08:05;;;;;;;6.85;3.75;;;34.40;52.00;;;;;;10948839;32;20027;-73
2022/06/30 15:14:07;;;;;;;7.20;3.50;;;34.40;52.00;;;;;;10948698;32;20015;-68
2022/06/30 15:20:13;;;;;;;5.22;2.42;;;34.30;52.10;;;;;;10948375;32;20015;-68
2022/06/30 15:26:15;;;;;;;7.12;3.47;;;34.40;52.10;;;;;;10948046;32;20054;-68
2022/06/30 15:32:19;;;;;;;12.98;5.10;;;34.50;52.00;;;;;;10943741;32;20054;-68
2022/06/30 15:38:21;;;;;;;15.93;4.05;;;34.40;52.00;;;;;;10947221;32;20474;-72
2022/06/30 15:44:52;;;;;;;8.55;3.60;;;34.30;52.50;;;;;;10795738;33;20058;-75
2022/06/30 15:50:54;;;;;;;11.38;3.47;;;34.30;52.30;;;;;;10795108;33;20428;-69
2022/06/30 15:56:57;;;;;;;12.95;3.90;;;34.30;52.30;;;;;;10795259;33;20055;-69
2022/06/30 16:03:00;;;;;;;13.15;4.30;;;34.20;52.20;;;;;;10805882;32;20027;-69
2022/06/30 16:09:03;;;;;;;23.42;4.15;;;34.20;52.20;;;;;;10956423;32;20314;-69
2022/06/30 16:15:16;;;;;;;14.50;4.35;;;34.20;52.30;;;;;;10984382;32;20015;-69
2022/06/30 16:21:18;;;;;;;13.27;3.42;;;34.30;51.80;;;;;;10983915;32;20057;-69
2022/06/30 16:27:21;;;;;;;13.80;3.53;;;34.20;51.80;;;;;;10983615;32;20022;-69
2022/06/30 16:33:23;;;;;;;9.68;3.50;;;34.20;51.70;;;;;;10982610;32;20038;-72
2022/06/30 16:39:25;;;;;;;8.55;2.47;;;34.20;51.70;;;;;;10969937;32;20049;-68
2022/06/30 16:45:27;;;;;;;6.68;3.28;;;34.30;51.70;;;;;;10983228;32;20014;-69
2022/06/30 16:51:31;;;;;;;9.88;3.17;;;34.30;50.90;;;;;;10982931;32;20045;-68
2022/06/30 16:57:33;;;;;;;8.57;3.35;;;34.30;50.90;;;;;;10982624;32;20062;-69
2022/06/30 17:03:36;;;;;;;8.23;4.10;;;34.20;50.70;;;;;;10971189;32;20056;-69
2022/06/30 17:09:38;;;;;;;5.87;2.85;;;34.00;51.00;;;;;;10930627;32;20058;-71
2022/06/30 17:15:41;;;;;;;12.85;3.80;;;33.80;51.30;;;;;;10944024;32;20019;-69
2022/06/30 17:21:44;;;;;;;12.63;3.08;;;33.60;51.60;;;;;;10943969;32;20019;-69
2022/06/30 17:27:47;;;;;;;10.02;4.43;;;33.30;52.00;;;;;;10962632;32;20074;-70
2022/06/30 17:33:49;;;;;;;8.10;2.80;;;33.20;52.30;;;;;;10975353;32;20057;-69
2022/06/30 17:39:51;;;;;;;6.70;2.30;;;33.10;52.50;;;;;;10942486;32;20058;-69
2022/06/30 17:45:53;;;;;;;5.78;2.35;;;32.80;53.10;;;;;;10944843;32;20035;-70
2022/06/30 17:51:58;;;;;;;9.02;2.78;;;32.70;53.60;;;;;;10943984;32;20023;-67
2022/06/30 17:58:01;;;;;;;5.40;2.45;;;32.60;54.10;;;;;;10942331;32;20069;-69
2022/06/30 18:04:07;;;;;;;3.95;2.10;;;32.80;54.30;;;;;;10939668;32;20575;-70
2022/06/30 18:16:29;;;;;;;3.12;1.85;;;32.80;54.10;;;;;;10942318;32;20061;-70
2022/06/30 18:22:32;;;;;;;4.90;2.28;;;32.80;54.20;;;;;;10948538;32;20018;-73
2022/06/30 18:28:34;;;;;;;4.85;2.00;;;32.60;54.50;;;;;;10942825;32;20062;-73
2022/06/30 18:34:36;;;;;;;5.87;2.72;;;32.40;55.00;;;;;;10975600;32;20072;-73
2022/06/30 18:40:39;;;;;;;15.32;2.53;;;32.30;55.50;;;;;;10980942;32;20023;-73
2022/06/30 18:46:41;;;;;;;3.50;1.83;;;32.20;56.00;;;;;;10979204;32;20395;-73
2022/06/30 18:52:46;;;;;;;11.40;1.73;;;32.10;56.20;;;;;;10957335;32;20077;-73
2022/06/30 18:58:49;;;;;;;6.60;2.03;;;32.00;56.40;;;;;;10939795;32;20027;-73
2022/06/30 19:05:00;;;;;;;2.40;1.08;;;31.90;56.50;;;;;;10941170;32;20333;-73
2022/06/30 19:11:03;;;;;;;2.97;1.80;;;31.90;56.70;;;;;;10941431;32;20359;-73
2022/06/30 19:17:34;;;;;;;4.30;1.85;;;31.80;56.90;;;;;;10927753;32;20027;-73
2022/06/30 19:23:38;;;;;;;5.20;2.08;;;31.70;56.90;;;;;;10936952;32;20046;-74
2022/06/30 19:29:40;;;;;;;7.20;1.60;;;31.60;57.30;;;;;;10937420;32;20023;-73
2022/06/30 19:35:42;;;;;;;6.55;1.85;;;31.50;57.70;;;;;;10970836;32;20057;-73
2022/06/30 19:41:45;;;;;;;1.80;1.00;;;31.30;58.10;;;;;;10977209;32;20338;-73
2022/06/30 19:47:47;;;;;;;3.45;1.37;;;31.30;58.20;;;;;;10985387;32;20034;-73
2022/06/30 19:53:49;;;;;;;6.72;1.58;;;31.30;58.20;;;;;;10965898;32;20023;-73
2022/06/30 19:59:52;;;;;;;5.55;2.12;;;31.30;58.30;;;;;;10953984;32;20057;-74
2022/06/30 20:05:54;;;;;;;6.03;1.62;;;31.30;58.60;;;;;;10946913;32;20063;-69
2022/06/30 20:12:06;;;;;;;5.62;2.28;;;31.20;59.10;;;;;;10929133;32;20053;-69
2022/06/30 20:18:17;;;;;;;4.05;1.73;;;31.10;59.30;;;;;;10945572;32;20442;-69
2022/06/30 20:24:19;;;;;;;2.53;1.92;;;31.10;59.40;;;;;;10942012;32;20049;-69
2022/06/30 20:30:46;;;;;;;4.20;1.37;;;31.00;59.40;;;;;;10993410;27;20022;-69
2022/06/30 20:36:49;;;;;;;3.30;1.55;;;30.90;60.00;;;;;;11005521;32;20022;-69
2022/06/30 20:42:51;;;;;;;4.90;1.67;;;30.80;60.60;;;;;;11017124;32;20068;-72
2022/06/30 20:55:15;;;;;;;12.40;2.55;;;30.40;62.20;;;;;;11017067;32;20038;-71
2022/06/30 21:01:17;;;;;;;2.42;1.37;;;30.40;62.10;;;;;;11020820;32;20014;-69
2022/06/30 21:07:28;;;;;;;4.45;2.35;;;30.30;62.40;;;;;;11019862;32;20053;-69
2022/06/30 21:13:34;;;;;;;5.82;2.15;;;30.20;63.20;;;;;;11019388;32;20018;-69
2022/06/30 21:19:40;;;;;;;2.37;1.42;;;30.20;63.30;;;;;;11017412;32;20026;-69
2022/06/30 21:25:43;;;;;;;4.50;2.08;;;30.20;63.00;;;;;;11019716;32;20425;-69
2022/06/30 21:31:45;;;;;;;2.60;1.70;;;30.20;63.40;;;;;;11017932;32;20037;-69
2022/06/30 21:38:00;;;;;;;4.80;2.22;;;30.10;63.80;;;;;;11005353;32;20372;-69
2022/06/30 21:44:03;;;;;;;3.37;1.77;;;30.20;63.50;;;;;;10981004;32;20424;-69
2022/06/30 21:50:06;;;;;;;2.72;2.03;;;30.20;63.40;;;;;;10980430;32;20022;-69
2022/06/30 21:56:09;;;;;;;4.65;1.60;;;30.10;63.40;;;;;;10980816;32;20425;-69
2022/06/30 22:02:12;;;;;;;7.05;2.60;;;30.10;63.60;;;;;;10966908;32;20034;-69
2022/06/30 22:08:14;;;;;;;4.60;2.08;;;30.00;63.50;;;;;;10976433;32;20066;-69
2022/06/30 22:14:17;;;;;;;6.45;1.90;;;29.90;63.70;;;;;;10976691;32;20034;-69
2022/06/30 22:20:20;;;;;;;3.60;2.05;;;29.90;63.80;;;;;;10978725;32;20027;-69
2022/06/30 22:26:29;;;;;;;3.75;2.12;;;29.90;63.70;;;;;;10975635;32;20026;-69
2022/06/30 22:32:34;;;;;;;4.50;2.55;;;29.80;64.00;;;;;;10976827;32;20059;-69
2022/06/30 22:38:36;;;;;;;6.62;2.83;;;29.80;64.20;;;;;;10976214;32;20018;-69
2022/06/30 22:44:39;;;;;;;5.57;2.12;;;29.80;64.20;;;;;;10977654;32;20057;-69
2022/06/30 22:50:41;;;;;;;6.70;2.47;;;29.70;64.30;;;;;;10979422;32;20049;-69
2022/06/30 22:56:44;;;;;;;7.53;2.55;;;29.60;64.50;;;;;;10979343;32;20066;-69
2022/06/30 23:02:47;;;;;;;4.28;2.83;;;29.60;64.80;;;;;;10976313;32;20023;-69
2022/06/30 23:08:50;;;;;;;2.90;2.10;;;29.60;64.70;;;;;;10976060;32;20026;-69
2022/06/30 23:14:52;;;;;;;3.78;2.45;;;29.50;64.90;;;;;;10977092;32;20018;-69
2022/06/30 23:20:55;;;;;;;6.35;2.42;;;29.50;64.90;;;;;;10982372;32;20053;-69
2022/06/30 23:27:03;;;;;;;8.95;2.83;;;29.50;64.80;;;;;;10981780;32;20049;-69
2022/06/30 23:33:06;;;;;;;3.12;2.35;;;29.40;64.80;;;;;;10981608;32;20049;-69
2022/06/30 23:39:09;;;;;;;5.45;3.17;;;29.50;64.90;;;;;;10981463;32;20023;-69
2022/06/30 23:45:11;;;;;;;3.70;2.83;;;29.50;64.80;;;;;;10983830;32;20022;-69
2022/06/30 23:51:14;;;;;;;5.50;2.72;;;29.50;64.90;;;;;;10985342;32;20023;-69
2022/06/30 23:57:16;;;;;;;12.55;3.72;;;29.40;65.30;;;;;;10971748;32;20038;-69
